sensor_id;sensor_type;location;lat;lon;timestamp;temperature;humidity
18741;DHT22;9499;52.472;13.448;2023-03-31T00:02:09;11.20;1.00
18741;DHT22;9499;52.472;13.448;2023-03-31T00:04:38;11.20;1.00
18741;DHT22;9499;52.472;13.448;2023-03-31T00:07:11;11.20;1.00
18741;DHT22;9499;52.472;13.448;2023-03-31T00:09:37;11.20;1.00
18741;DHT22;9499;52.472;13.448;2023-03-31T00:12:06;11.20;1.00
18741;DHT22;9499;52.472;13.448;2023-03-31T00:14:33;11.20;1.00
18741;DHT22;9499;52.472;13.448;2023-03-31T00:16:59;11.20;1.00
18741;DHT22;9499;52.472;13.448;2023-03-31T00:19:29;11.20;1.00
18741;DHT22;9499;52.472;13.448;2023-03-31T00:21:58;11.20;1.00
18741;DHT22;9499;52.472;13.448;2023-03-31T00:24:26;11.20;1.00
18741;DHT22;9499;52.472;13.448;2023-03-31T00:26:53;11.10;1.00
18741;DHT22;9499;52.472;13.448;2023-03-31T00:29:21;11.10;1.00
18741;DHT22;9499;52.472;13.448;2023-03-31T00:31:47;11.10;1.00
18741;DHT22;9499;52.472;13.448;2023-03-31T00:34:14;11.10;1.00
18741;DHT22;9499;52.472;13.448;2023-03-31T00:36:40;11.10;1.00
18741;DHT22;9499;52.472;13.448;2023-03-31T00:39:12;11.10;1.00
18741;DHT22;9499;52.472;13.448;2023-03-31T00:41:38;11.10;1.00
18741;DHT22;9499;52.472;13.448;2023-03-31T00:44:08;11.10;1.00
18741;DHT22;9499;52.472;13.448;2023-03-31T00:46:41;11.10;1.00
18741;DHT22;9499;52.472;13.448;2023-03-31T00:49:15;11.00;1.00
18741;DHT22;9499;52.472;13.448;2023-03-31T00:51:47;11.00;1.00
18741;DHT22;9499;52.472;13.448;2023-03-31T00:54:14;11.00;1.00
18741;DHT22;9499;52.472;13.448;2023-03-31T00:56:45;11.00;1.00
18741;DHT22;9499;52.472;13.448;2023-03-31T00:59:13;11.00;1.00
18741;DHT22;9499;52.472;13.448;2023-03-31T01:01:43;11.00;1.00
18741;DHT22;9499;52.472;13.448;2023-03-31T01:04:12;11.00;1.00
18741;DHT22;9499;52.472;13.448;2023-03-31T01:06:47;11.00;1.00
18741;DHT22;9499;52.472;13.448;2023-03-31T01:09:17;11.00;1.00
18741;DHT22;9499;52.472;13.448;2023-03-31T01:11:44;10.90;1.00
18741;DHT22;9499;52.472;13.448;2023-03-31T01:14:13;10.90;1.00
18741;DHT22;9499;52.472;13.448;2023-03-31T01:16:41;10.90;1.00
18741;DHT22;9499;52.472;13.448;2023-03-31T01:19:12;10.90;1.00
18741;DHT22;9499;52.472;13.448;2023-03-31T01:22:14;10.80;1.00
18741;DHT22;9499;52.472;13.448;2023-03-31T01:24:59;10.80;1.00
18741;DHT22;9499;52.472;13.448;2023-03-31T01:27:52;10.80;1.00
18741;DHT22;9499;52.472;13.448;2023-03-31T01:30:36;10.70;1.00
18741;DHT22;9499;52.472;13.448;2023-03-31T01:33:31;10.70;1.00
18741;DHT22;9499;52.472;13.448;2023-03-31T01:36:23;10.70;1.00
18741;DHT22;9499;52.472;13.448;2023-03-31T01:39:19;10.60;1.00
18741;DHT22;9499;52.472;13.448;2023-03-31T01:41:57;10.60;1.00
18741;DHT22;9499;52.472;13.448;2023-03-31T01:44:32;10.60;1.00
18741;DHT22;9499;52.472;13.448;2023-03-31T01:47:07;10.60;1.00
18741;DHT22;9499;52.472;13.448;2023-03-31T01:49:40;10.60;1.00
18741;DHT22;9499;52.472;13.448;2023-03-31T01:52:16;10.60;1.00
18741;DHT22;9499;52.472;13.448;2023-03-31T01:54:47;10.60;1.00
18741;DHT22;9499;52.472;13.448;2023-03-31T01:57:19;10.60;1.00
18741;DHT22;9499;52.472;13.448;2023-03-31T01:59:51;10.60;1.00
18741;DHT22;9499;52.472;13.448;2023-03-31T02:02:24;10.60;1.00
18741;DHT22;9499;52.472;13.448;2023-03-31T02:04:57;10.60;1.00
18741;DHT22;9499;52.472;13.448;2023-03-31T02:07:29;10.60;1.00
18741;DHT22;9499;52.472;13.448;2023-03-31T02:10:00;10.60;1.00
18741;DHT22;9499;52.472;13.448;2023-03-31T02:12:31;10.50;1.00
18741;DHT22;9499;52.472;13.448;2023-03-31T02:14:59;10.50;1.00
18741;DHT22;9499;52.472;13.448;2023-03-31T02:17:28;10.50;1.00
18741;DHT22;9499;52.472;13.448;2023-03-31T02:20:00;10.50;1.00
18741;DHT22;9499;52.472;13.448;2023-03-31T02:22:31;10.50;1.00
18741;DHT22;9499;52.472;13.448;2023-03-31T02:25:01;10.50;1.00
18741;DHT22;9499;52.472;13.448;2023-03-31T02:27:32;10.60;1.00
18741;DHT22;9499;52.472;13.448;2023-03-31T02:30:00;10.60;1.00
18741;DHT22;9499;52.472;13.448;2023-03-31T02:32:30;10.60;1.00
18741;DHT22;9499;52.472;13.448;2023-03-31T02:34:58;10.60;1.00
18741;DHT22;9499;52.472;13.448;2023-03-31T02:37:25;10.50;1.00
18741;DHT22;9499;52.472;13.448;2023-03-31T02:39:54;10.50;1.00
18741;DHT22;9499;52.472;13.448;2023-03-31T02:42:22;10.50;1.00
18741;DHT22;9499;52.472;13.448;2023-03-31T02:44:50;10.50;1.00
18741;DHT22;9499;52.472;13.448;2023-03-31T02:47:18;10.50;1.00
18741;DHT22;9499;52.472;13.448;2023-03-31T02:49:49;10.50;1.00
18741;DHT22;9499;52.472;13.448;2023-03-31T02:55:28;10.60;1.00
18741;DHT22;9499;52.472;13.448;2023-03-31T03:01:00;10.60;1.00
18741;DHT22;9499;52.472;13.448;2023-03-31T03:03:40;10.60;1.00
18741;DHT22;9499;52.472;13.448;2023-03-31T03:06:17;10.60;1.00
18741;DHT22;9499;52.472;13.448;2023-03-31T03:08:58;10.60;1.00
18741;DHT22;9499;52.472;13.448;2023-03-31T03:11:31;10.60;1.00
18741;DHT22;9499;52.472;13.448;2023-03-31T03:14:04;10.60;1.00
18741;DHT22;9499;52.472;13.448;2023-03-31T03:16:38;10.60;1.00
18741;DHT22;9499;52.472;13.448;2023-03-31T03:19:06;10.70;1.00
18741;DHT22;9499;52.472;13.448;2023-03-31T03:21:33;10.70;1.00
18741;DHT22;9499;52.472;13.448;2023-03-31T03:23:59;10.70;1.00
18741;DHT22;9499;52.472;13.448;2023-03-31T03:26:27;10.70;1.00
18741;DHT22;9499;52.472;13.448;2023-03-31T03:28:54;10.60;1.00
18741;DHT22;9499;52.472;13.448;2023-03-31T03:31:22;10.70;1.00
18741;DHT22;9499;52.472;13.448;2023-03-31T03:33:52;10.70;1.00
18741;DHT22;9499;52.472;13.448;2023-03-31T03:36:19;10.70;1.00
18741;DHT22;9499;52.472;13.448;2023-03-31T03:38:46;10.70;1.00
18741;DHT22;9499;52.472;13.448;2023-03-31T03:41:12;10.70;1.00
18741;DHT22;9499;52.472;13.448;2023-03-31T03:43:38;10.70;1.00
18741;DHT22;9499;52.472;13.448;2023-03-31T03:46:05;10.70;1.00
18741;DHT22;9499;52.472;13.448;2023-03-31T03:48:31;10.70;1.00
18741;DHT22;9499;52.472;13.448;2023-03-31T03:51:00;10.70;1.00
18741;DHT22;9499;52.472;13.448;2023-03-31T03:53:27;10.80;1.00
18741;DHT22;9499;52.472;13.448;2023-03-31T03:55:53;10.80;1.00
18741;DHT22;9499;52.472;13.448;2023-03-31T03:58:20;10.70;1.00
18741;DHT22;9499;52.472;13.448;2023-03-31T04:00:46;10.70;1.00
18741;DHT22;9499;52.472;13.448;2023-03-31T04:03:13;10.70;1.00
18741;DHT22;9499;52.472;13.448;2023-03-31T04:05:40;10.80;1.00
18741;DHT22;9499;52.472;13.448;2023-03-31T04:08:08;10.80;1.00
18741;DHT22;9499;52.472;13.448;2023-03-31T04:10:35;10.80;1.00
18741;DHT22;9499;52.472;13.448;2023-03-31T04:13:01;10.80;1.00
18741;DHT22;9499;52.472;13.448;2023-03-31T04:15:28;10.80;1.00
18741;DHT22;9499;52.472;13.448;2023-03-31T04:17:55;10.80;1.00
18741;DHT22;9499;52.472;13.448;2023-03-31T04:20:22;10.90;1.00
18741;DHT22;9499;52.472;13.448;2023-03-31T04:22:52;10.90;1.00
18741;DHT22;9499;52.472;13.448;2023-03-31T04:25:20;10.80;1.00
18741;DHT22;9499;52.472;13.448;2023-03-31T04:27:48;10.80;1.00
18741;DHT22;9499;52.472;13.448;2023-03-31T04:30:19;10.80;1.00
18741;DHT22;9499;52.472;13.448;2023-03-31T04:32:48;10.70;9.20
18741;DHT22;9499;52.472;13.448;2023-03-31T04:35:15;10.70;8.90
18741;DHT22;9499;52.472;13.448;2023-03-31T04:37:42;10.70;8.00
18741;DHT22;9499;52.472;13.448;2023-03-31T04:40:09;10.60;17.80
18741;DHT22;9499;52.472;13.448;2023-03-31T04:42:37;10.60;17.90
18741;DHT22;9499;52.472;13.448;2023-03-31T04:45:04;10.60;21.60
18741;DHT22;9499;52.472;13.448;2023-03-31T04:47:31;10.60;20.50
18741;DHT22;9499;52.472;13.448;2023-03-31T04:49:57;10.60;18.90
18741;DHT22;9499;52.472;13.448;2023-03-31T04:52:24;10.60;23.90
18741;DHT22;9499;52.472;13.448;2023-03-31T04:54:51;10.60;23.40
18741;DHT22;9499;52.472;13.448;2023-03-31T04:57:17;10.60;22.70
18741;DHT22;9499;52.472;13.448;2023-03-31T04:59:45;10.50;23.70
18741;DHT22;9499;52.472;13.448;2023-03-31T05:02:11;10.50;27.30
18741;DHT22;9499;52.472;13.448;2023-03-31T05:04:39;10.50;28.00
18741;DHT22;9499;52.472;13.448;2023-03-31T05:07:05;10.50;25.70
18741;DHT22;9499;52.472;13.448;2023-03-31T05:09:32;10.50;28.10
18741;DHT22;9499;52.472;13.448;2023-03-31T05:11:58;10.50;26.90
18741;DHT22;9499;52.472;13.448;2023-03-31T05:14:25;10.50;28.50
18741;DHT22;9499;52.472;13.448;2023-03-31T05:16:54;10.50;24.60
18741;DHT22;9499;52.472;13.448;2023-03-31T05:19:23;10.50;18.30
18741;DHT22;9499;52.472;13.448;2023-03-31T05:21:50;10.50;14.70
18741;DHT22;9499;52.472;13.448;2023-03-31T05:24:16;10.50;14.60
18741;DHT22;9499;52.472;13.448;2023-03-31T05:26:43;10.50;8.70
18741;DHT22;9499;52.472;13.448;2023-03-31T05:29:12;10.50;5.10
18741;DHT22;9499;52.472;13.448;2023-03-31T05:31:40;10.50;12.40
18741;DHT22;9499;52.472;13.448;2023-03-31T05:34:08;10.50;19.10
18741;DHT22;9499;52.472;13.448;2023-03-31T05:36:35;10.50;16.90
18741;DHT22;9499;52.472;13.448;2023-03-31T05:39:01;10.50;10.70
18741;DHT22;9499;52.472;13.448;2023-03-31T05:41:28;10.50;10.80
18741;DHT22;9499;52.472;13.448;2023-03-31T05:43:55;10.40;12.20
18741;DHT22;9499;52.472;13.448;2023-03-31T05:46:21;10.40;15.90
18741;DHT22;9499;52.472;13.448;2023-03-31T05:48:48;10.40;19.20
18741;DHT22;9499;52.472;13.448;2023-03-31T05:51:16;10.40;16.90
18741;DHT22;9499;52.472;13.448;2023-03-31T05:53:42;10.50;15.30
18741;DHT22;9499;52.472;13.448;2023-03-31T05:56:09;10.50;11.80
18741;DHT22;9499;52.472;13.448;2023-03-31T05:58:36;10.50;6.20
18741;DHT22;9499;52.472;13.448;2023-03-31T06:01:04;10.60;1.40
18741;DHT22;9499;52.472;13.448;2023-03-31T06:03:31;10.60;1.00
18741;DHT22;9499;52.472;13.448;2023-03-31T06:05:58;10.60;1.00
18741;DHT22;9499;52.472;13.448;2023-03-31T06:08:27;10.70;1.00
18741;DHT22;9499;52.472;13.448;2023-03-31T06:10:54;10.70;1.00
18741;DHT22;9499;52.472;13.448;2023-03-31T06:13:21;10.70;1.00
18741;DHT22;9499;52.472;13.448;2023-03-31T06:15:52;10.70;1.00
18741;DHT22;9499;52.472;13.448;2023-03-31T06:18:19;10.80;1.00
18741;DHT22;9499;52.472;13.448;2023-03-31T06:20:45;10.80;1.00
18741;DHT22;9499;52.472;13.448;2023-03-31T06:23:12;10.70;1.00
18741;DHT22;9499;52.472;13.448;2023-03-31T06:25:40;10.80;1.00
18741;DHT22;9499;52.472;13.448;2023-03-31T06:28:06;10.80;1.00
18741;DHT22;9499;52.472;13.448;2023-03-31T06:30:33;10.80;1.00
18741;DHT22;9499;52.472;13.448;2023-03-31T06:33:00;10.80;1.00
18741;DHT22;9499;52.472;13.448;2023-03-31T06:35:26;10.80;1.00
18741;DHT22;9499;52.472;13.448;2023-03-31T06:37:53;10.70;1.00
18741;DHT22;9499;52.472;13.448;2023-03-31T06:40:19;10.70;1.00
18741;DHT22;9499;52.472;13.448;2023-03-31T06:42:47;10.70;1.00
18741;DHT22;9499;52.472;13.448;2023-03-31T06:45:14;10.70;1.00
18741;DHT22;9499;52.472;13.448;2023-03-31T06:47:40;10.80;1.00
18741;DHT22;9499;52.472;13.448;2023-03-31T06:50:08;10.80;1.00
18741;DHT22;9499;52.472;13.448;2023-03-31T06:52:35;10.90;1.00
18741;DHT22;9499;52.472;13.448;2023-03-31T06:55:02;10.90;1.00
18741;DHT22;9499;52.472;13.448;2023-03-31T06:57:29;10.90;1.00
18741;DHT22;9499;52.472;13.448;2023-03-31T06:59:59;11.00;1.00
18741;DHT22;9499;52.472;13.448;2023-03-31T07:02:26;11.00;1.00
18741;DHT22;9499;52.472;13.448;2023-03-31T07:04:52;11.10;1.00
18741;DHT22;9499;52.472;13.448;2023-03-31T07:07:18;11.10;1.00
18741;DHT22;9499;52.472;13.448;2023-03-31T07:09:45;11.20;1.00
18741;DHT22;9499;52.472;13.448;2023-03-31T07:12:11;11.30;1.00
18741;DHT22;9499;52.472;13.448;2023-03-31T07:14:38;11.30;1.00
18741;DHT22;9499;52.472;13.448;2023-03-31T07:17:06;11.40;1.00
18741;DHT22;9499;52.472;13.448;2023-03-31T07:19:32;11.40;1.00
18741;DHT22;9499;52.472;13.448;2023-03-31T07:22:02;11.50;1.00
18741;DHT22;9499;52.472;13.448;2023-03-31T07:24:28;11.50;1.00
18741;DHT22;9499;52.472;13.448;2023-03-31T07:26:55;11.60;1.00
18741;DHT22;9499;52.472;13.448;2023-03-31T07:29:22;11.60;1.00
18741;DHT22;9499;52.472;13.448;2023-03-31T07:31:48;11.70;1.00
18741;DHT22;9499;52.472;13.448;2023-03-31T07:34:16;11.80;1.00
18741;DHT22;9499;52.472;13.448;2023-03-31T07:36:43;11.90;1.00
18741;DHT22;9499;52.472;13.448;2023-03-31T07:39:09;11.90;1.00
18741;DHT22;9499;52.472;13.448;2023-03-31T07:41:36;11.90;1.00
18741;DHT22;9499;52.472;13.448;2023-03-31T07:44:02;12.00;1.00
18741;DHT22;9499;52.472;13.448;2023-03-31T07:46:29;12.10;1.00
18741;DHT22;9499;52.472;13.448;2023-03-31T07:48:56;12.20;1.00
18741;DHT22;9499;52.472;13.448;2023-03-31T07:51:25;12.20;1.00
18741;DHT22;9499;52.472;13.448;2023-03-31T07:53:52;12.30;1.00
18741;DHT22;9499;52.472;13.448;2023-03-31T07:56:20;12.30;1.00
18741;DHT22;9499;52.472;13.448;2023-03-31T07:58:47;12.40;1.00
18741;DHT22;9499;52.472;13.448;2023-03-31T08:01:16;12.50;1.00
18741;DHT22;9499;52.472;13.448;2023-03-31T08:03:43;12.60;1.00
18741;DHT22;9499;52.472;13.448;2023-03-31T08:06:11;12.80;1.00
18741;DHT22;9499;52.472;13.448;2023-03-31T08:08:44;12.80;1.00
18741;DHT22;9499;52.472;13.448;2023-03-31T08:11:10;12.90;1.00
18741;DHT22;9499;52.472;13.448;2023-03-31T08:13:37;13.00;99.90
18741;DHT22;9499;52.472;13.448;2023-03-31T08:16:04;13.00;99.90
18741;DHT22;9499;52.472;13.448;2023-03-31T08:18:31;12.90;99.90
18741;DHT22;9499;52.472;13.448;2023-03-31T08:20:57;13.00;99.90
18741;DHT22;9499;52.472;13.448;2023-03-31T08:23:24;13.00;99.90
18741;DHT22;9499;52.472;13.448;2023-03-31T08:25:52;13.10;99.90
18741;DHT22;9499;52.472;13.448;2023-03-31T08:28:18;13.20;99.90
18741;DHT22;9499;52.472;13.448;2023-03-31T08:30:44;13.30;99.90
18741;DHT22;9499;52.472;13.448;2023-03-31T08:33:11;13.30;99.90
18741;DHT22;9499;52.472;13.448;2023-03-31T08:35:38;13.30;99.90
18741;DHT22;9499;52.472;13.448;2023-03-31T08:38:04;13.40;99.90
18741;DHT22;9499;52.472;13.448;2023-03-31T08:40:31;13.40;99.90
18741;DHT22;9499;52.472;13.448;2023-03-31T08:43:04;13.40;99.90
18741;DHT22;9499;52.472;13.448;2023-03-31T08:45:34;13.40;99.90
18741;DHT22;9499;52.472;13.448;2023-03-31T08:48:03;13.50;91.10
18741;DHT22;9499;52.472;13.448;2023-03-31T08:50:34;13.50;99.90
18741;DHT22;9499;52.472;13.448;2023-03-31T08:53:04;13.60;11.10
18741;DHT22;9499;52.472;13.448;2023-03-31T08:55:36;13.50;1.00
18741;DHT22;9499;52.472;13.448;2023-03-31T08:58:12;13.50;1.00
18741;DHT22;9499;52.472;13.448;2023-03-31T09:00:45;13.50;59.30
18741;DHT22;9499;52.472;13.448;2023-03-31T09:03:19;13.50;67.60
18741;DHT22;9499;52.472;13.448;2023-03-31T09:05:56;13.60;53.40
18741;DHT22;9499;52.472;13.448;2023-03-31T09:08:34;13.60;1.00
18741;DHT22;9499;52.472;13.448;2023-03-31T09:11:10;13.60;1.00
18741;DHT22;9499;52.472;13.448;2023-03-31T09:13:51;13.60;1.00
18741;DHT22;9499;52.472;13.448;2023-03-31T09:16:23;13.70;1.00
18741;DHT22;9499;52.472;13.448;2023-03-31T09:18:52;13.70;10.40
18741;DHT22;9499;52.472;13.448;2023-03-31T09:21:23;13.80;1.00
18741;DHT22;9499;52.472;13.448;2023-03-31T09:23:55;14.00;1.00
18741;DHT22;9499;52.472;13.448;2023-03-31T09:26:28;14.00;1.00
18741;DHT22;9499;52.472;13.448;2023-03-31T09:28:59;14.10;1.00
18741;DHT22;9499;52.472;13.448;2023-03-31T09:31:27;14.30;99.90
18741;DHT22;9499;52.472;13.448;2023-03-31T09:33:58;14.40;4.10
18741;DHT22;9499;52.472;13.448;2023-03-31T09:36:26;14.40;1.00
18741;DHT22;9499;52.472;13.448;2023-03-31T09:38:53;14.40;1.00
18741;DHT22;9499;52.472;13.448;2023-03-31T09:41:19;14.40;1.00
18741;DHT22;9499;52.472;13.448;2023-03-31T09:43:46;14.30;1.00
18741;DHT22;9499;52.472;13.448;2023-03-31T09:46:18;14.30;99.90
18741;DHT22;9499;52.472;13.448;2023-03-31T09:48:51;14.30;99.90
18741;DHT22;9499;52.472;13.448;2023-03-31T09:51:24;14.20;99.90
18741;DHT22;9499;52.472;13.448;2023-03-31T09:53:53;14.20;99.90
18741;DHT22;9499;52.472;13.448;2023-03-31T09:56:33;14.20;74.10
18741;DHT22;9499;52.472;13.448;2023-03-31T09:59:01;14.20;99.90
18741;DHT22;9499;52.472;13.448;2023-03-31T10:01:30;14.60;1.00
18741;DHT22;9499;52.472;13.448;2023-03-31T10:03:56;14.80;88.40
18741;DHT22;9499;52.472;13.448;2023-03-31T10:06:24;14.80;1.00
18741;DHT22;9499;52.472;13.448;2023-03-31T10:08:53;14.70;29.30
18741;DHT22;9499;52.472;13.448;2023-03-31T10:11:21;14.60;99.90
18741;DHT22;9499;52.472;13.448;2023-03-31T10:13:49;14.50;1.00
18741;DHT22;9499;52.472;13.448;2023-03-31T10:16:22;14.40;99.70
18741;DHT22;9499;52.472;13.448;2023-03-31T10:18:50;14.30;1.00
18741;DHT22;9499;52.472;13.448;2023-03-31T10:21:20;14.20;1.00
18741;DHT22;9499;52.472;13.448;2023-03-31T10:23:48;14.10;1.00
18741;DHT22;9499;52.472;13.448;2023-03-31T10:26:17;14.10;1.00
18741;DHT22;9499;52.472;13.448;2023-03-31T10:28:47;14.10;1.00
18741;DHT22;9499;52.472;13.448;2023-03-31T10:31:14;14.10;1.00
18741;DHT22;9499;52.472;13.448;2023-03-31T10:33:44;14.00;99.90
18741;DHT22;9499;52.472;13.448;2023-03-31T10:36:18;13.90;1.00
18741;DHT22;9499;52.472;13.448;2023-03-31T10:38:48;13.90;99.90
18741;DHT22;9499;52.472;13.448;2023-03-31T10:41:18;14.00;1.00
18741;DHT22;9499;52.472;13.448;2023-03-31T10:43:49;14.00;99.90
18741;DHT22;9499;52.472;13.448;2023-03-31T10:46:16;14.10;99.90
18741;DHT22;9499;52.472;13.448;2023-03-31T10:48:42;14.00;99.90
18741;DHT22;9499;52.472;13.448;2023-03-31T10:51:13;14.10;99.90
18741;DHT22;9499;52.472;13.448;2023-03-31T10:53:43;14.10;99.90
18741;DHT22;9499;52.472;13.448;2023-03-31T10:56:35;14.10;1.00
18741;DHT22;9499;52.472;13.448;2023-03-31T10:59:22;14.00;73.40
18741;DHT22;9499;52.472;13.448;2023-03-31T11:02:00;14.00;99.90
18741;DHT22;9499;52.472;13.448;2023-03-31T11:04:43;13.80;1.00
18741;DHT22;9499;52.472;13.448;2023-03-31T11:07:27;13.60;1.00
18741;DHT22;9499;52.472;13.448;2023-03-31T11:10:08;13.50;1.00
18741;DHT22;9499;52.472;13.448;2023-03-31T11:12:44;13.40;1.00
18741;DHT22;9499;52.472;13.448;2023-03-31T11:15:20;13.40;1.00
18741;DHT22;9499;52.472;13.448;2023-03-31T11:18:02;13.40;1.00
18741;DHT22;9499;52.472;13.448;2023-03-31T11:20:37;13.60;1.00
18741;DHT22;9499;52.472;13.448;2023-03-31T11:23:13;13.70;1.00
18741;DHT22;9499;52.472;13.448;2023-03-31T11:25:50;13.90;1.00
18741;DHT22;9499;52.472;13.448;2023-03-31T11:31:26;13.70;1.00
18741;DHT22;9499;52.472;13.448;2023-03-31T11:37:11;13.60;1.00
18741;DHT22;9499;52.472;13.448;2023-03-31T11:39:53;13.60;1.00
18741;DHT22;9499;52.472;13.448;2023-03-31T11:42:26;13.70;1.00
18741;DHT22;9499;52.472;13.448;2023-03-31T11:44:56;13.80;1.00
18741;DHT22;9499;52.472;13.448;2023-03-31T11:47:25;13.80;99.90
18741;DHT22;9499;52.472;13.448;2023-03-31T11:49:56;13.90;99.90
18741;DHT22;9499;52.472;13.448;2023-03-31T11:52:26;14.00;1.00
18741;DHT22;9499;52.472;13.448;2023-03-31T11:54:58;14.00;1.00
18741;DHT22;9499;52.472;13.448;2023-03-31T11:57:29;14.10;1.00
18741;DHT22;9499;52.472;13.448;2023-03-31T11:59:59;14.00;99.90
18741;DHT22;9499;52.472;13.448;2023-03-31T12:02:37;14.10;99.90
18741;DHT22;9499;52.472;13.448;2023-03-31T12:05:06;14.00;1.00
18741;DHT22;9499;52.472;13.448;2023-03-31T12:07:37;13.90;1.00
18741;DHT22;9499;52.472;13.448;2023-03-31T12:10:14;13.90;1.00
18741;DHT22;9499;52.472;13.448;2023-03-31T12:15:18;13.90;1.00
18741;DHT22;9499;52.472;13.448;2023-03-31T12:17:49;13.90;1.00
18741;DHT22;9499;52.472;13.448;2023-03-31T12:20:24;13.90;1.00
18741;DHT22;9499;52.472;13.448;2023-03-31T12:22:53;14.00;1.00
18741;DHT22;9499;52.472;13.448;2023-03-31T12:25:22;13.90;1.00
18741;DHT22;9499;52.472;13.448;2023-03-31T12:27:51;13.90;99.90
18741;DHT22;9499;52.472;13.448;2023-03-31T12:30:26;13.90;13.80
18741;DHT22;9499;52.472;13.448;2023-03-31T12:32:57;14.00;99.90
18741;DHT22;9499;52.472;13.448;2023-03-31T12:35:28;13.90;99.90
18741;DHT22;9499;52.472;13.448;2023-03-31T12:38:09;14.00;1.00
18741;DHT22;9499;52.472;13.448;2023-03-31T12:40:48;14.00;99.90
18741;DHT22;9499;52.472;13.448;2023-03-31T12:43:36;13.60;1.00
18741;DHT22;9499;52.472;13.448;2023-03-31T12:46:22;13.30;1.00
18741;DHT22;9499;52.472;13.448;2023-03-31T12:49:03;12.90;1.00
18741;DHT22;9499;52.472;13.448;2023-03-31T12:51:47;12.50;1.00
18741;DHT22;9499;52.472;13.448;2023-03-31T12:54:33;12.20;1.00
18741;DHT22;9499;52.472;13.448;2023-03-31T12:57:04;11.90;1.00
18741;DHT22;9499;52.472;13.448;2023-03-31T12:59:39;11.80;38.90
18741;DHT22;9499;52.472;13.448;2023-03-31T13:02:26;11.70;90.70
18741;DHT22;9499;52.472;13.448;2023-03-31T13:04:52;11.70;99.90
18741;DHT22;9499;52.472;13.448;2023-03-31T13:07:38;11.70;99.90
18741;DHT22;9499;52.472;13.448;2023-03-31T13:10:27;11.70;99.90
18741;DHT22;9499;52.472;13.448;2023-03-31T13:13:03;11.80;99.90
18741;DHT22;9499;52.472;13.448;2023-03-31T13:15:31;11.80;99.90
18741;DHT22;9499;52.472;13.448;2023-03-31T13:18:01;11.80;99.90
18741;DHT22;9499;52.472;13.448;2023-03-31T13:20:35;11.80;99.90
18741;DHT22;9499;52.472;13.448;2023-03-31T13:23:05;11.80;99.90
18741;DHT22;9499;52.472;13.448;2023-03-31T13:25:48;11.80;99.90
18741;DHT22;9499;52.472;13.448;2023-03-31T13:28:31;11.70;99.90
18741;DHT22;9499;52.472;13.448;2023-03-31T13:30:59;11.70;99.90
18741;DHT22;9499;52.472;13.448;2023-03-31T13:33:37;11.60;99.90
18741;DHT22;9499;52.472;13.448;2023-03-31T13:36:18;11.40;99.90
18741;DHT22;9499;52.472;13.448;2023-03-31T13:39:00;11.30;99.90
18741;DHT22;9499;52.472;13.448;2023-03-31T13:41:35;11.10;99.90
18741;DHT22;9499;52.472;13.448;2023-03-31T13:44:45;11.00;99.90
18741;DHT22;9499;52.472;13.448;2023-03-31T13:50:31;10.80;99.90
18741;DHT22;9499;52.472;13.448;2023-03-31T13:53:06;10.70;99.90
18741;DHT22;9499;52.472;13.448;2023-03-31T13:56:04;10.70;99.90
18741;DHT22;9499;52.472;13.448;2023-03-31T13:58:48;10.70;99.90
18741;DHT22;9499;52.472;13.448;2023-03-31T14:01:46;10.70;99.90
18741;DHT22;9499;52.472;13.448;2023-03-31T14:04:37;10.60;99.90
18741;DHT22;9499;52.472;13.448;2023-03-31T14:07:08;10.60;99.90
18741;DHT22;9499;52.472;13.448;2023-03-31T14:09:38;10.60;99.90
18741;DHT22;9499;52.472;13.448;2023-03-31T14:12:19;10.60;99.90
18741;DHT22;9499;52.472;13.448;2023-03-31T14:14:46;10.70;99.90
18741;DHT22;9499;52.472;13.448;2023-03-31T14:17:13;10.60;99.90
18741;DHT22;9499;52.472;13.448;2023-03-31T14:19:52;10.60;99.90
18741;DHT22;9499;52.472;13.448;2023-03-31T14:22:30;10.60;99.90
18741;DHT22;9499;52.472;13.448;2023-03-31T14:25:06;10.60;99.90
18741;DHT22;9499;52.472;13.448;2023-03-31T14:27:46;10.60;99.90
18741;DHT22;9499;52.472;13.448;2023-03-31T14:30:22;10.50;99.90
18741;DHT22;9499;52.472;13.448;2023-03-31T14:33:05;10.50;99.90
18741;DHT22;9499;52.472;13.448;2023-03-31T14:35:39;10.40;99.90
18741;DHT22;9499;52.472;13.448;2023-03-31T14:38:14;10.40;99.90
18741;DHT22;9499;52.472;13.448;2023-03-31T14:40:45;10.50;99.90
18741;DHT22;9499;52.472;13.448;2023-03-31T14:43:17;10.50;99.90
18741;DHT22;9499;52.472;13.448;2023-03-31T14:45:44;10.40;99.90
18741;DHT22;9499;52.472;13.448;2023-03-31T14:48:13;10.40;99.90
18741;DHT22;9499;52.472;13.448;2023-03-31T14:50:42;10.40;99.90
18741;DHT22;9499;52.472;13.448;2023-03-31T14:53:14;10.40;99.90
18741;DHT22;9499;52.472;13.448;2023-03-31T14:55:42;10.40;99.90
18741;DHT22;9499;52.472;13.448;2023-03-31T14:58:13;10.40;99.90
18741;DHT22;9499;52.472;13.448;2023-03-31T15:00:41;10.40;99.90
18741;DHT22;9499;52.472;13.448;2023-03-31T15:03:12;10.40;99.90
18741;DHT22;9499;52.472;13.448;2023-03-31T15:05:41;10.40;99.90
18741;DHT22;9499;52.472;13.448;2023-03-31T15:08:11;10.40;99.90
18741;DHT22;9499;52.472;13.448;2023-03-31T15:10:42;10.50;99.90
18741;DHT22;9499;52.472;13.448;2023-03-31T15:13:11;10.50;99.90
18741;DHT22;9499;52.472;13.448;2023-03-31T15:15:41;10.50;99.90
18741;DHT22;9499;52.472;13.448;2023-03-31T15:18:10;10.50;99.90
18741;DHT22;9499;52.472;13.448;2023-03-31T15:20:40;10.50;99.90
18741;DHT22;9499;52.472;13.448;2023-03-31T15:23:19;10.50;99.90
18741;DHT22;9499;52.472;13.448;2023-03-31T15:25:52;10.40;99.90
18741;DHT22;9499;52.472;13.448;2023-03-31T15:28:21;10.40;99.90
18741;DHT22;9499;52.472;13.448;2023-03-31T15:30:49;10.50;99.90
18741;DHT22;9499;52.472;13.448;2023-03-31T15:33:20;10.50;99.90
18741;DHT22;9499;52.472;13.448;2023-03-31T15:35:47;10.50;99.90
18741;DHT22;9499;52.472;13.448;2023-03-31T15:38:15;10.50;99.90
18741;DHT22;9499;52.472;13.448;2023-03-31T15:40:51;10.50;99.90
18741;DHT22;9499;52.472;13.448;2023-03-31T15:43:29;10.50;99.90
18741;DHT22;9499;52.472;13.448;2023-03-31T15:45:56;10.40;99.90
18741;DHT22;9499;52.472;13.448;2023-03-31T15:48:27;10.50;99.90
18741;DHT22;9499;52.472;13.448;2023-03-31T15:50:59;10.50;99.90
18741;DHT22;9499;52.472;13.448;2023-03-31T15:53:30;10.50;99.90
18741;DHT22;9499;52.472;13.448;2023-03-31T15:55:58;10.50;99.90
18741;DHT22;9499;52.472;13.448;2023-03-31T15:58:53;10.50;99.90
18741;DHT22;9499;52.472;13.448;2023-03-31T16:01:21;10.60;99.90
18741;DHT22;9499;52.472;13.448;2023-03-31T16:03:51;10.60;99.90
18741;DHT22;9499;52.472;13.448;2023-03-31T16:06:23;10.60;99.90
18741;DHT22;9499;52.472;13.448;2023-03-31T16:08:56;10.60;99.90
18741;DHT22;9499;52.472;13.448;2023-03-31T16:11:32;10.60;99.90
18741;DHT22;9499;52.472;13.448;2023-03-31T16:14:07;10.60;99.90
18741;DHT22;9499;52.472;13.448;2023-03-31T16:16:34;10.60;99.90
18741;DHT22;9499;52.472;13.448;2023-03-31T16:19:02;10.60;99.90
18741;DHT22;9499;52.472;13.448;2023-03-31T16:21:34;10.60;99.90
18741;DHT22;9499;52.472;13.448;2023-03-31T16:24:01;10.60;99.90